createdAt,value
2022-10-29T00:00:51.662Z,12.24
2022-10-29T00:03:21.022Z,12.24
2022-10-29T00:06:05.979Z,12.20
2022-10-29T00:08:35.363Z,12.15
2022-10-29T00:11:30.119Z,12.07
2022-10-29T00:14:01.288Z,12.09
2022-10-29T00:16:35.521Z,12.06
2022-10-29T00:19:04.108Z,12.01
2022-10-29T00:21:32.159Z,11.98
2022-10-29T00:23:59.969Z,11.93
2022-10-29T00:26:30.640Z,11.87
2022-10-29T00:28:58.295Z,11.85
2022-10-29T00:31:26.011Z,11.82
2022-10-29T00:33:55.758Z,11.81
2022-10-29T00:36:26.301Z,11.82
2022-10-29T00:38:54.129Z,11.78
2022-10-29T00:41:25.463Z,11.74
2022-10-29T00:44:21.192Z,11.73
2022-10-29T00:46:53.532Z,11.69
2022-10-29T00:49:21.221Z,11.71
2022-10-29T00:51:49.457Z,11.69
2022-10-29T00:54:17.895Z,11.66
2022-10-29T00:56:51.434Z,11.60
2022-10-29T00:59:19.613Z,11.59
2022-10-29T01:01:49.697Z,11.61
2022-10-29T01:04:18.858Z,11.59
2022-10-29T01:06:47.078Z,11.56
2022-10-29T01:09:14.683Z,11.56
2022-10-29T01:12:00.571Z,11.56
2022-10-29T01:14:34.013Z,11.54
2022-10-29T01:17:13.307Z,11.52
2022-10-29T01:20:15.198Z,11.49
2022-10-29T01:23:09.575Z,11.45
2022-10-29T01:26:14.049Z,11.41
2022-10-29T01:29:18.178Z,11.39
2022-10-29T01:31:56.875Z,11.39
2022-10-29T01:34:35.945Z,11.41
2022-10-29T01:37:14.463Z,11.43
2022-10-29T01:39:51.651Z,11.45
2022-10-29T01:42:40.541Z,11.44
2022-10-29T01:45:27.836Z,11.44
2022-10-29T01:48:03.186Z,11.43
2022-10-29T01:50:30.928Z,11.39
2022-10-29T01:52:59.577Z,11.41
2022-10-29T01:55:35.142Z,11.40
2022-10-29T01:58:03.941Z,11.41
2022-10-29T02:00:49.917Z,11.39
2022-10-29T02:03:28.283Z,11.37
2022-10-29T02:06:14.469Z,11.29
2022-10-29T02:08:47.723Z,11.23
2022-10-29T02:11:27.125Z,11.18
2022-10-29T02:14:06.768Z,11.12
2022-10-29T02:16:34.739Z,11.13
2022-10-29T02:19:02.919Z,11.09
2022-10-29T02:21:30.353Z,11.13
2022-10-29T02:23:57.854Z,11.15
2022-10-29T02:26:25.369Z,11.16
2022-10-29T02:28:52.938Z,11.08
2022-10-29T02:31:20.381Z,11.13
2022-10-29T02:33:47.826Z,11.10
2022-10-29T02:36:15.278Z,11.09
2022-10-29T02:38:42.749Z,11.12
2022-10-29T02:41:10.200Z,10.80
2022-10-29T02:43:37.679Z,11.14
2022-10-29T02:46:20.401Z,11.21
2022-10-29T02:48:48.507Z,11.21
2022-10-29T02:51:17.465Z,11.23
2022-10-29T02:53:45.328Z,11.26
2022-10-29T02:56:13.067Z,11.28
2022-10-29T02:58:40.592Z,11.28
2022-10-29T03:01:08.051Z,11.30
2022-10-29T03:03:35.913Z,11.32
2022-10-29T03:06:03.397Z,11.32
2022-10-29T03:08:30.888Z,11.33
2022-10-29T03:10:58.425Z,11.33
2022-10-29T03:13:25.904Z,11.34
2022-10-29T03:15:53.375Z,11.35
2022-10-29T03:18:20.845Z,11.36
2022-10-29T03:20:48.490Z,11.35
2022-10-29T03:23:16.104Z,11.38
2022-10-29T03:25:43.905Z,11.36
2022-10-29T03:28:11.686Z,11.37
2022-10-29T03:30:39.126Z,11.38
2022-10-29T03:33:06.573Z,11.39
2022-10-29T03:35:34.081Z,11.38
2022-10-29T03:38:01.588Z,11.35
2022-10-29T03:40:29.100Z,11.34
2022-10-29T03:42:56.861Z,11.34
2022-10-29T03:45:24.640Z,11.34
2022-10-29T03:47:52.153Z,11.33
2022-10-29T03:50:19.892Z,11.31
2022-10-29T03:52:47.332Z,11.30
2022-10-29T03:55:14.877Z,11.27
2022-10-29T03:57:42.393Z,11.27
2022-10-29T04:00:11.028Z,11.22
2022-10-29T04:02:38.565Z,11.27
2022-10-29T04:05:06.747Z,11.30
2022-10-29T04:07:34.189Z,11.27
2022-10-29T04:10:01.662Z,11.33
2022-10-29T04:12:29.130Z,11.36
2022-10-29T04:14:56.623Z,11.36
2022-10-29T04:17:24.135Z,11.36
2022-10-29T04:19:51.591Z,11.38
2022-10-29T04:30:45.339Z,11.41
2022-10-29T04:33:12.842Z,11.41
2022-10-29T04:35:40.291Z,11.43
2022-10-29T04:38:12.243Z,11.48
2022-10-29T04:40:39.794Z,11.48
2022-10-29T04:43:07.286Z,11.43
2022-10-29T04:45:34.918Z,11.50
2022-10-29T04:48:04.089Z,11.49
2022-10-29T04:50:32.969Z,11.51
2022-10-29T04:53:02.052Z,11.54
2022-10-29T04:55:30.201Z,11.54
2022-10-29T04:57:58.469Z,11.46
2022-10-29T05:00:26.474Z,11.54
2022-10-29T05:02:54.551Z,11.53
2022-10-29T05:05:22.951Z,11.51
2022-10-29T05:07:50.432Z,11.47
2022-10-29T05:10:17.938Z,11.49
2022-10-29T05:12:45.423Z,11.52
2022-10-29T05:15:12.862Z,11.53
2022-10-29T05:17:40.313Z,11.53
2022-10-29T05:20:08.243Z,11.55
2022-10-29T05:22:35.682Z,11.52
2022-10-29T05:25:03.151Z,11.60
2022-10-29T05:27:31.106Z,11.61
2022-10-29T05:29:58.705Z,11.62
2022-10-29T05:32:26.289Z,11.63
2022-10-29T05:34:53.780Z,11.70
2022-10-29T05:37:21.224Z,11.71
2022-10-29T05:39:48.685Z,11.75
2022-10-29T05:42:16.116Z,11.80
2022-10-29T05:44:43.595Z,11.84
2022-10-29T05:47:11.467Z,11.83
2022-10-29T05:49:38.957Z,11.89
2022-10-29T05:52:06.424Z,11.94
2022-10-29T05:54:33.921Z,11.96
2022-10-29T05:57:01.393Z,11.98
2022-10-29T05:59:32.683Z,12.03
2022-10-29T06:02:01.423Z,12.04
2022-10-29T06:04:28.984Z,12.06
2022-10-29T06:06:56.536Z,12.09
2022-10-29T06:09:24.059Z,12.12
2022-10-29T06:11:51.560Z,12.15
2022-10-29T06:14:19.076Z,12.18
2022-10-29T06:16:46.581Z,12.17
2022-10-29T06:19:14.129Z,12.20
2022-10-29T06:21:41.715Z,12.20
2022-10-29T06:24:10.628Z,12.23
2022-10-29T06:26:38.345Z,12.27
2022-10-29T06:29:05.807Z,12.27
2022-10-29T06:31:33.291Z,12.30
2022-10-29T06:34:01.863Z,12.31
2022-10-29T06:36:29.330Z,12.27
2022-10-29T06:38:56.805Z,12.34
2022-10-29T06:41:27.105Z,12.37
2022-10-29T06:43:54.679Z,12.37
2022-10-29T06:46:22.210Z,12.39
2022-10-29T06:48:49.673Z,12.41
2022-10-29T06:51:17.227Z,12.42
2022-10-29T06:53:44.828Z,12.44
2022-10-29T06:56:12.297Z,12.47
2022-10-29T06:58:39.766Z,12.49
2022-10-29T07:01:07.239Z,12.53
2022-10-29T07:03:34.695Z,12.55
2022-10-29T07:06:02.156Z,12.61
2022-10-29T07:08:30.550Z,12.65
2022-10-29T07:10:58.049Z,12.66
2022-10-29T07:13:25.499Z,12.74
2022-10-29T07:15:53.171Z,12.77
2022-10-29T07:18:20.653Z,12.83
2022-10-29T07:20:48.220Z,12.87
2022-10-29T07:23:15.727Z,12.92
2022-10-29T07:25:43.507Z,12.95
2022-10-29T07:28:13.692Z,13.00
2022-10-29T07:30:42.022Z,13.08
2022-10-29T07:33:09.676Z,13.16
2022-10-29T07:35:37.705Z,13.19
2022-10-29T07:38:10.802Z,13.34
2022-10-29T07:40:40.445Z,13.47
2022-10-29T07:43:08.364Z,13.54
2022-10-29T07:45:35.843Z,13.68
2022-10-29T07:48:07.413Z,13.81
2022-10-29T07:50:35.207Z,13.94
2022-10-29T07:53:03.566Z,14.02
2022-10-29T07:55:31.629Z,14.13
2022-10-29T07:58:01.391Z,14.25
2022-10-29T08:00:37.982Z,14.33
2022-10-29T08:03:06.805Z,14.41
2022-10-29T08:05:34.633Z,14.41
2022-10-29T08:08:02.199Z,14.45
2022-10-29T08:10:31.744Z,14.40
2022-10-29T08:13:02.195Z,14.49
2022-10-29T08:15:32.438Z,14.58
2022-10-29T08:18:00.471Z,14.65
2022-10-29T08:20:29.923Z,14.70
2022-10-29T08:23:00.787Z,14.88
2022-10-29T08:25:28.635Z,14.94
2022-10-29T08:28:00.583Z,15.14
2022-10-29T08:30:28.405Z,15.15
2022-10-29T08:32:56.255Z,15.32
2022-10-29T08:35:23.933Z,15.42
2022-10-29T08:37:51.664Z,15.52
2022-10-29T08:40:30.065Z,15.66
2022-10-29T08:43:19.225Z,15.80
2022-10-29T08:45:50.778Z,15.79
2022-10-29T08:48:35.208Z,16.00
2022-10-29T08:51:14.097Z,16.03
2022-10-29T08:53:54.460Z,16.19
2022-10-29T08:56:40.739Z,16.19
2022-10-29T08:59:12.691Z,16.30
2022-10-29T09:01:40.525Z,16.30
2022-10-29T09:04:17.608Z,16.30
2022-10-29T09:07:05.312Z,16.38
2022-10-29T09:09:42.936Z,16.36
2022-10-29T09:12:45.635Z,16.34
2022-10-29T09:15:26.031Z,16.35
2022-10-29T09:18:15.889Z,16.33
2022-10-29T09:20:56.288Z,16.38
2022-10-29T09:23:47.933Z,16.42
2022-10-29T09:26:27.244Z,16.44
2022-10-29T09:29:07.702Z,16.57
2022-10-29T09:31:50.924Z,16.62
2022-10-29T09:34:29.418Z,16.64
2022-10-29T09:36:57.751Z,16.72
2022-10-29T09:39:38.881Z,16.74
2022-10-29T09:42:13.433Z,16.77
2022-10-29T09:44:59.927Z,16.88
2022-10-29T09:47:44.272Z,16.87
2022-10-29T09:50:15.519Z,16.89
2022-10-29T09:52:45.315Z,16.95
2022-10-29T09:55:21.632Z,16.85
2022-10-29T09:57:49.707Z,16.87
2022-10-29T10:00:24.747Z,17.02
2022-10-29T10:03:04.886Z,17.11
2022-10-29T10:05:34.670Z,17.21
2022-10-29T10:08:15.711Z,17.37
2022-10-29T10:10:56.437Z,17.42
2022-10-29T10:13:35.675Z,17.63
2022-10-29T10:16:05.857Z,17.88
2022-10-29T10:18:33.477Z,18.03
2022-10-29T10:21:08.153Z,18.17
2022-10-29T10:23:48.312Z,18.30
2022-10-29T10:26:38.723Z,18.44
2022-10-29T10:29:06.223Z,18.51
2022-10-29T10:31:33.659Z,19.07
2022-10-29T10:34:10.274Z,19.29
2022-10-29T10:36:42.118Z,19.33
2022-10-29T10:39:22.097Z,19.04
2022-10-29T10:41:51.683Z,19.08
2022-10-29T10:44:21.889Z,19.15
2022-10-29T10:46:52.667Z,19.67
2022-10-29T10:49:32.790Z,20.10
2022-10-29T10:52:03.853Z,20.28
2022-10-29T10:54:38.069Z,20.64
2022-10-29T10:57:20.092Z,20.41
2022-10-29T11:00:00.378Z,20.47
2022-10-29T11:02:38.897Z,20.76
2022-10-29T11:05:21.419Z,20.47
2022-10-29T11:07:56.365Z,20.67
2022-10-29T11:10:33.408Z,20.51
2022-10-29T11:13:06.062Z,20.73
2022-10-29T11:15:46.941Z,20.55
2022-10-29T11:18:20.102Z,20.49
2022-10-29T11:21:26.026Z,20.22
2022-10-29T11:24:23.789Z,20.47
2022-10-29T11:27:13.206Z,20.54
2022-10-29T11:29:58.099Z,20.47
2022-10-29T11:32:49.219Z,20.32
2022-10-29T11:35:38.921Z,19.98
2022-10-29T11:38:32.564Z,20.08
2022-10-29T11:41:05.889Z,20.12
2022-10-29T11:43:33.796Z,19.88
2022-10-29T11:46:11.639Z,19.98
2022-10-29T11:48:57.672Z,20.00
2022-10-29T11:51:36.454Z,20.15
2022-10-29T11:54:22.516Z,20.24
2022-10-29T11:57:05.024Z,20.34
2022-10-29T11:59:32.558Z,20.75
2022-10-29T12:02:35.341Z,20.79
2022-10-29T12:05:31.883Z,20.91
2022-10-29T12:08:19.428Z,21.07
2022-10-29T12:10:46.819Z,21.10
2022-10-29T12:13:22.943Z,21.17
2022-10-29T12:16:32.370Z,21.46
2022-10-29T12:19:22.642Z,21.68
2022-10-29T12:22:14.334Z,21.91
2022-10-29T12:25:05.261Z,22.00
2022-10-29T12:27:40.095Z,22.21
2022-10-29T12:30:12.856Z,22.00
2022-10-29T12:32:49.670Z,22.18
2022-10-29T12:35:30.087Z,22.13
2022-10-29T12:38:15.953Z,22.06
2022-10-29T12:40:45.828Z,21.90
2022-10-29T12:43:40.834Z,21.69
2022-10-29T12:46:32.571Z,21.58
2022-10-29T12:49:25.910Z,21.54
2022-10-29T12:52:06.062Z,21.51
2022-10-29T12:54:36.318Z,21.48
2022-10-29T12:57:15.660Z,21.39
2022-10-29T12:59:44.471Z,21.23
2022-10-29T13:02:44.990Z,21.10
2022-10-29T13:05:13.908Z,20.98
2022-10-29T13:07:47.592Z,21.07
2022-10-29T13:10:24.523Z,21.18
2022-10-29T13:13:05.445Z,21.22
2022-10-29T13:15:37.983Z,21.30
2022-10-29T13:18:43.073Z,21.27
2022-10-29T13:21:10.751Z,21.32
2022-10-29T13:23:41.224Z,21.24
2022-10-29T13:26:09.880Z,21.25
2022-10-29T13:28:37.307Z,21.41
2022-10-29T13:31:04.780Z,21.63
2022-10-29T13:33:32.216Z,21.76
2022-10-29T13:36:18.888Z,21.95
2022-10-29T13:38:58.696Z,22.00
2022-10-29T13:41:43.724Z,22.12
2022-10-29T13:44:18.494Z,22.16
2022-10-29T13:46:48.949Z,22.17
2022-10-29T13:49:21.454Z,22.15
2022-10-29T13:51:54.609Z,22.02
2022-10-29T13:54:40.992Z,21.83
2022-10-29T13:57:14.653Z,21.57
2022-10-29T13:59:46.555Z,21.56
2022-10-29T14:02:36.786Z,21.41
2022-10-29T14:05:20.091Z,21.22
2022-10-29T14:08:05.613Z,21.10
2022-10-29T14:10:46.053Z,21.00
2022-10-29T14:13:32.165Z,20.88
2022-10-29T14:16:04.158Z,20.83
2022-10-29T14:18:38.769Z,20.75
2022-10-29T14:21:30.529Z,20.66
2022-10-29T14:24:02.081Z,20.64
2022-10-29T14:26:31.364Z,20.68
2022-10-29T14:29:14.753Z,20.63
2022-10-29T14:31:42.269Z,20.64
2022-10-29T14:34:24.604Z,20.63
2022-10-29T14:36:57.784Z,20.62
2022-10-29T14:39:48.544Z,20.50
2022-10-29T14:42:49.632Z,20.55
2022-10-29T14:45:32.189Z,20.56
2022-10-29T14:48:05.317Z,20.50
2022-10-29T14:50:32.932Z,20.47
2022-10-29T14:53:03.461Z,20.40
2022-10-29T14:55:42.019Z,20.33
2022-10-29T14:58:12.655Z,20.21
2022-10-29T15:00:50.650Z,20.11
2022-10-29T15:03:23.067Z,20.10
2022-10-29T15:05:51.141Z,19.98
2022-10-29T15:08:29.169Z,19.97
2022-10-29T15:10:58.950Z,19.92
2022-10-29T15:13:29.584Z,19.85
2022-10-29T15:16:07.625Z,19.78
2022-10-29T15:18:36.676Z,19.71
2022-10-29T15:21:05.827Z,19.60
2022-10-29T15:23:42.169Z,19.58
2022-10-29T15:26:20.512Z,19.53
2022-10-29T15:28:51.394Z,19.52
2022-10-29T15:31:41.335Z,19.47
2022-10-29T15:34:11.099Z,19.43
2022-10-29T15:36:57.677Z,19.21
2022-10-29T15:39:27.764Z,19.36
2022-10-29T15:41:59.019Z,19.31
2022-10-29T15:44:35.968Z,19.31
2022-10-29T15:47:19.745Z,19.29
2022-10-29T15:49:47.233Z,19.23
2022-10-29T15:52:19.857Z,19.20
2022-10-29T15:54:48.476Z,19.14
2022-10-29T15:57:16.511Z,19.12
2022-10-29T15:59:44.126Z,19.07
2022-10-29T16:02:13.544Z,19.06
2022-10-29T16:04:41.967Z,19.03
2022-10-29T16:07:17.480Z,18.99
2022-10-29T16:09:49.265Z,18.96
2022-10-29T16:12:17.005Z,18.92
2022-10-29T16:14:46.549Z,18.93
2022-10-29T16:17:22.005Z,18.90
2022-10-29T16:19:50.584Z,18.85
2022-10-29T16:22:29.911Z,18.78
2022-10-29T16:24:58.043Z,18.71
2022-10-29T16:27:28.789Z,18.66
2022-10-29T16:29:56.277Z,18.56
2022-10-29T16:32:25.396Z,18.55
2022-10-29T16:34:53.292Z,18.48
2022-10-29T16:37:21.722Z,18.44
2022-10-29T16:39:49.203Z,18.40
2022-10-29T16:42:35.156Z,18.35
2022-10-29T16:45:03.224Z,18.30
2022-10-29T16:47:30.947Z,18.23
2022-10-29T16:49:58.604Z,18.15
2022-10-29T16:52:29.420Z,18.05
2022-10-29T16:54:57.519Z,18.03
2022-10-29T16:57:29.317Z,17.98
2022-10-29T16:59:56.773Z,17.96
2022-10-29T17:02:24.395Z,17.91
2022-10-29T17:04:51.866Z,17.87
2022-10-29T17:07:20.339Z,17.84
2022-10-29T17:09:47.987Z,17.82
2022-10-29T17:12:15.580Z,17.77
2022-10-29T17:14:43.053Z,17.75
2022-10-29T17:17:10.609Z,17.73
2022-10-29T17:19:38.169Z,17.71
2022-10-29T17:22:05.719Z,17.75
2022-10-29T17:24:33.269Z,17.71
2022-10-29T17:27:00.824Z,17.65
2022-10-29T17:29:32.465Z,17.63
2022-10-29T17:34:31.124Z,17.58
2022-10-29T17:36:58.780Z,17.54
2022-10-29T17:39:26.345Z,17.50
2022-10-29T17:41:53.941Z,17.45
2022-10-29T17:44:21.570Z,17.45
2022-10-29T17:46:49.130Z,17.25
2022-10-29T17:49:16.626Z,17.35
2022-10-29T17:51:44.134Z,17.30
2022-10-29T17:54:18.217Z,17.21
2022-10-29T17:56:45.719Z,17.16
2022-10-29T17:59:13.319Z,17.28
2022-10-29T18:01:40.865Z,17.35
2022-10-29T18:04:08.445Z,17.36
2022-10-29T18:06:35.925Z,17.40
2022-10-29T18:09:03.671Z,17.41
2022-10-29T18:11:31.451Z,17.20
2022-10-29T18:14:00.261Z,17.36
2022-10-29T18:16:29.805Z,17.34
2022-10-29T18:19:02.835Z,17.30
2022-10-29T18:21:31.607Z,17.22
2022-10-29T18:23:59.477Z,17.21
2022-10-29T18:26:30.672Z,17.18
2022-10-29T18:29:00.993Z,17.14
2022-10-29T18:31:32.223Z,17.10
2022-10-29T18:34:01.658Z,17.05
2022-10-29T18:36:29.469Z,17.01
2022-10-29T18:38:59.915Z,16.98
2022-10-29T18:41:27.507Z,16.89
2022-10-29T18:43:55.391Z,16.83
2022-10-29T18:46:22.933Z,16.76
2022-10-29T18:48:50.798Z,16.69
2022-10-29T18:51:24.666Z,16.61
2022-10-29T18:53:53.184Z,16.51
2022-10-29T18:56:22.177Z,16.43
2022-10-29T18:58:50.256Z,16.35
2022-10-29T19:01:23.432Z,16.35
2022-10-29T19:03:52.851Z,16.27
2022-10-29T19:06:21.379Z,16.22
2022-10-29T19:08:49.477Z,16.15
2022-10-29T19:11:20.437Z,16.11
2022-10-29T19:14:01.514Z,16.07
2022-10-29T19:16:31.403Z,16.05
2022-10-29T19:21:39.401Z,15.94
2022-10-29T19:24:08.248Z,15.88
2022-10-29T19:26:37.044Z,15.85
2022-10-29T19:29:07.888Z,15.81
2022-10-29T19:31:37.503Z,15.77
2022-10-29T19:34:07.299Z,15.76
2022-10-29T19:36:37.367Z,15.74
2022-10-29T19:39:05.593Z,15.74
2022-10-29T19:41:33.638Z,15.76
2022-10-29T19:44:02.428Z,15.78
2022-10-29T19:46:30.090Z,15.82
2022-10-29T19:48:58.820Z,15.93
2022-10-29T19:51:26.413Z,16.00
2022-10-29T19:53:53.922Z,16.08
2022-10-29T19:56:21.891Z,16.13
2022-10-29T19:58:49.706Z,16.30
2022-10-29T20:01:18.998Z,16.37
2022-10-29T20:03:47.433Z,16.39
2022-10-29T20:06:16.418Z,16.41
2022-10-29T20:08:44.181Z,16.43
2022-10-29T20:11:11.879Z,16.39
2022-10-29T20:13:40.038Z,16.33
2022-10-29T20:16:09.352Z,16.36
2022-10-29T20:18:38.140Z,16.36
2022-10-29T20:23:33.781Z,16.30
2022-10-29T20:26:01.225Z,16.31
2022-10-29T20:28:28.747Z,16.25
2022-10-29T20:31:29.990Z,16.22
2022-10-29T20:34:00.202Z,16.20
2022-10-29T20:36:33.394Z,16.11
2022-10-29T20:39:01.396Z,16.11
2022-10-29T20:41:29.572Z,16.08
2022-10-29T20:44:00.036Z,16.03
2022-10-29T20:46:28.146Z,15.99
2022-10-29T20:48:57.297Z,15.97
2022-10-29T20:51:25.202Z,15.97
2022-10-29T20:53:53.547Z,15.95
2022-10-29T20:56:22.932Z,15.91
2022-10-29T20:58:51.985Z,15.86
2022-10-29T21:01:21.972Z,15.88
2022-10-29T21:03:50.304Z,15.85
2022-10-29T21:06:18.319Z,15.81
2022-10-29T21:08:47.384Z,15.76
2022-10-29T21:11:16.304Z,15.75
2022-10-29T21:13:44.043Z,15.67
2022-10-29T21:16:20.858Z,15.63
2022-10-29T21:18:51.112Z,15.64
2022-10-29T21:21:19.758Z,15.66
2022-10-29T21:23:47.326Z,15.69
2022-10-29T21:26:17.646Z,15.71
2022-10-29T21:28:45.921Z,15.70
2022-10-29T21:31:13.492Z,15.71
2022-10-29T21:33:41.005Z,15.69
2022-10-29T21:36:08.825Z,15.63
2022-10-29T21:38:36.304Z,15.57
2022-10-29T21:41:04.012Z,15.55
2022-10-29T21:43:31.643Z,15.53
2022-10-29T21:45:59.355Z,15.47
2022-10-29T21:48:28.535Z,15.43
2022-10-29T21:51:09.141Z,15.44
2022-10-29T21:53:36.816Z,15.44
2022-10-29T21:56:06.803Z,15.39
2022-10-29T21:58:34.945Z,15.31
2022-10-29T22:01:20.497Z,15.29
2022-10-29T22:03:48.754Z,15.23
2022-10-29T22:06:21.735Z,15.25
2022-10-29T22:08:54.812Z,15.19
2022-10-29T22:11:22.567Z,15.16
2022-10-29T22:13:50.456Z,15.17
2022-10-29T22:16:19.137Z,15.22
2022-10-29T22:18:47.239Z,15.22
2022-10-29T22:21:20.934Z,15.27
2022-10-29T22:23:54.008Z,15.27
2022-10-29T22:26:24.322Z,15.23
2022-10-29T22:28:51.932Z,15.17
2022-10-29T22:31:21.477Z,15.15
2022-10-29T22:33:49.568Z,15.07
2022-10-29T22:36:24.989Z,15.08
2022-10-29T22:39:00.577Z,15.06
2022-10-29T22:41:28.814Z,15.06
2022-10-29T22:43:58.806Z,15.06
2022-10-29T22:46:27.602Z,15.06
2022-10-29T22:48:55.177Z,15.01
2022-10-29T22:51:25.364Z,14.96
2022-10-29T22:53:54.425Z,14.96
2022-10-29T22:56:27.291Z,14.95
2022-10-29T22:58:55.431Z,14.90
2022-10-29T23:01:26.004Z,14.88
2022-10-29T23:03:54.419Z,14.87
2022-10-29T23:06:24.231Z,14.85
2022-10-29T23:08:53.955Z,14.82
2022-10-29T23:11:22.949Z,14.79
2022-10-29T23:13:53.842Z,14.73
2022-10-29T23:16:22.323Z,14.73
2022-10-29T23:18:51.053Z,14.74
2022-10-29T23:21:19.444Z,14.66
2022-10-29T23:23:47.274Z,14.64
2022-10-29T23:26:15.314Z,14.64
2022-10-29T23:28:43.485Z,14.59
2022-10-29T23:31:13.836Z,14.61
2022-10-29T23:33:48.573Z,14.58
2022-10-29T23:36:17.574Z,14.56
2022-10-29T23:38:45.534Z,14.57
2022-10-29T23:41:13.377Z,14.57
2022-10-29T23:43:41.037Z,14.54
2022-10-29T23:46:08.743Z,14.53
2022-10-29T23:48:36.228Z,14.52
2022-10-29T23:51:03.695Z,14.53
2022-10-29T23:53:31.213Z,14.55
2022-10-29T23:55:58.736Z,14.56
2022-10-29T23:58:26.316Z,14.55
